Time;durP1;ratioP1;P1;durP2;ratioP2;P2;SDS_P1;SDS_P2;PMS_P1;PMS_P2;Temp;Humidity;BMP_temperature;BMP_pressure;BME280_temperature;BME280_humidity;BME280_pressure;Samples;Min_cycle;Max_cycle;Signal;HPM_P1;HPM_P2
2021/08/25 00:00:19;;;;;;;15.70;12.73;;;;;;;18.06;69.26;93089.06;5029923;28;20122;-82
2021/08/25 00:02:46;;;;;;;17.15;12.30;;;;;;;18.16;69.60;93109.84;5030515;28;20052;-82
2021/08/25 00:05:13;;;;;;;16.08;12.98;;;;;;;18.17;69.48;93105.44;5029492;28;20049;-82
2021/08/25 00:07:40;;;;;;;21.50;13.18;;;;;;;18.07;70.19;93103.63;5029920;28;20100;-82
2021/08/25 00:10:08;;;;;;;17.92;12.63;;;;;;;17.90;71.04;93080.44;5029834;28;20057;-81
2021/08/25 00:12:35;;;;;;;19.58;13.20;;;;;;;17.68;71.72;93058.06;5030018;28;20072;-82
2021/08/25 00:15:01;;;;;;;15.07;11.82;;;;;;;17.97;71.13;93101.75;5029911;28;20049;-81
2021/08/25 00:17:30;;;;;;;17.25;13.13;;;;;;;18.01;71.87;93102.78;5029947;28;20415;-81
2021/08/25 00:19:56;;;;;;;16.80;14.10;;;;;;;17.99;72.89;93110.06;5029618;28;20052;-82
2021/08/25 00:22:23;;;;;;;19.58;16.33;;;;;;;18.02;73.54;93112.13;5029895;28;20103;-82
2021/08/25 00:24:50;;;;;;;18.35;15.25;;;;;;;18.07;72.53;93119.22;5029058;28;20053;-83
2021/08/25 00:27:17;;;;;;;22.58;15.38;;;;;;;18.02;72.38;93099.16;5029836;28;20387;-83
2021/08/25 00:29:44;;;;;;;19.88;14.68;;;;;;;18.22;72.07;93115.84;5029491;28;20049;-82
2021/08/25 00:32:10;;;;;;;19.10;14.52;;;;;;;18.18;71.84;93094.00;5029766;28;20176;-83
2021/08/25 00:34:39;;;;;;;18.98;15.10;;;;;;;18.18;71.84;93094.00;5029902;28;20050;-83
2021/08/25 00:37:06;;;;;;;18.30;14.90;;;;;;;18.01;72.94;93081.25;5029445;28;20133;-82
2021/08/25 00:39:32;;;;;;;20.35;15.70;;;;;;;18.23;76.53;93117.41;5029753;28;20049;-82
2021/08/25 00:41:59;;;;;;;21.98;15.52;;;;;;;18.29;73.04;93121.56;5029160;28;20041;-81
2021/08/25 00:44:27;;;;;;;20.25;15.85;;;;;;;18.31;73.15;93113.50;5029308;28;20498;-82
2021/08/25 00:46:54;;;;;;;22.15;15.75;;;;;;;18.42;72.39;93109.06;5029253;28;20061;-81
2021/08/25 00:49:21;;;;;;;19.20;15.68;;;;;;;18.36;73.00;93092.69;5028947;28;20512;-81
2021/08/25 00:51:50;;;;;;;18.83;14.43;;;;;;;18.56;72.35;93111.91;5029890;28;20060;-81
2021/08/25 00:54:19;;;;;;;18.88;14.48;;;;;;;18.46;72.58;93094.50;5029497;28;20049;-81
2021/08/25 00:56:49;;;;;;;22.17;15.75;;;;;;;18.49;73.31;93095.81;5029576;28;20104;-80
2021/08/25 00:59:18;;;;;;;19.58;15.13;;;;;;;18.51;72.75;93097.09;5029143;28;20494;-81
2021/08/25 01:01:54;;;;;;;19.50;15.45;;;;;;;18.50;73.26;93103.34;5029391;28;20078;-81
2021/08/25 01:04:27;;;;;;;19.90;14.95;;;;;;;18.45;74.25;93092.94;5028995;28;20529;-82
2021/08/25 01:06:58;;;;;;;24.00;17.35;;;;;;;18.43;74.34;93084.66;5029010;28;20053;-82
2021/08/25 01:09:25;;;;;;;22.90;16.38;;;;;;;18.27;73.64;93056.03;5029349;28;20072;-82
2021/08/25 01:11:53;;;;;;;21.58;14.90;;;;;;;18.46;72.64;93081.50;5028913;28;20080;-82
2021/08/25 01:14:20;;;;;;;28.08;15.40;;;;;;;18.50;72.45;93071.34;5028893;28;20049;-81
2021/08/25 01:16:50;;;;;;;17.23;15.15;;;;;;;18.59;72.21;93076.78;5015819;28;20065;-81
2021/08/25 01:19:18;;;;;;;18.38;15.02;;;;;;;18.68;71.72;93073.41;5014084;28;20061;-81
2021/08/25 01:21:46;;;;;;;19.88;15.57;;;;;;;18.71;72.58;93066.91;5013341;28;20052;-82
2021/08/25 01:24:16;;;;;;;19.48;15.27;;;;;;;18.73;72.21;93061.44;5013543;28;20046;-82
2021/08/25 01:26:46;;;;;;;18.63;15.73;;;;;;;18.65;72.15;93040.13;5016457;28;20064;-82
2021/08/25 01:29:32;;;;;;;21.25;16.58;;;;;;;18.81;72.34;93046.06;5013027;28;20046;-81
2021/08/25 01:31:59;;;;;;;23.80;16.52;;;;;;;18.76;72.29;93027.09;5012997;28;20054;-81
2021/08/25 01:34:26;;;;;;;15.68;12.80;;;;;;;18.85;71.65;93040.31;5013106;28;20498;-81
2021/08/25 01:36:53;;;;;;;17.60;12.90;;;;;;;18.85;71.83;93033.31;5013346;28;20050;-81
2021/08/25 01:39:21;;;;;;;14.88;12.15;;;;;;;18.70;71.57;93010.69;5024423;28;20057;-81
2021/08/25 01:41:48;;;;;;;18.65;13.15;;;;;;;18.72;72.52;92998.22;5014898;28;20045;-81
2021/08/25 01:44:15;;;;;;;18.83;12.75;;;;;;;18.66;72.61;92989.63;5012758;28;20046;-81
2021/08/25 01:46:44;;;;;;;16.33;13.63;;;;;;;18.73;73.03;92985.97;5012957;28;20057;-82
2021/08/25 01:49:12;;;;;;;19.35;14.27;;;;;;;18.66;73.14;92962.88;5013182;28;20041;-82
2021/08/25 01:51:41;;;;;;;25.23;14.98;;;;;;;18.87;73.02;92989.56;5014209;28;20046;-82
2021/08/25 01:54:09;;;;;;;18.45;15.02;;;;;;;18.79;73.09;92961.53;5032154;28;20045;-82
2021/08/25 01:56:36;;;;;;;19.13;14.98;;;;;;;18.91;73.14;92969.78;5032426;28;20141;-82
2021/08/25 01:59:03;;;;;;;18.73;16.33;;;;;;;18.77;74.00;92948.78;5032213;28;20049;-80
2021/08/25 02:01:30;;;;;;;21.30;16.38;;;;;;;18.91;74.43;92956.78;5032451;28;20050;-80
2021/08/25 02:04:01;;;;;;;29.13;18.25;;;;;;;18.96;75.20;92954.16;5032235;28;20057;-81
2021/08/25 02:06:29;;;;;;;22.20;17.13;;;;;;;18.97;74.14;92962.72;5032467;28;20050;-81
2021/08/25 02:08:56;;;;;;;21.85;17.13;;;;;;;18.91;74.70;92950.78;5031831;28;20037;-81
2021/08/25 02:11:24;;;;;;;22.05;16.77;;;;;;;19.01;74.52;92966.34;5032401;28;20518;-81
2021/08/25 02:13:51;;;;;;;17.00;14.32;;;;;;;19.04;74.13;92962.47;5032658;28;20080;-81
2021/08/25 02:16:18;;;;;;;20.95;15.60;;;;;;;18.84;75.30;92945.84;5032891;28;20052;-81
2021/08/25 02:18:44;;;;;;;19.95;15.40;;;;;;;18.96;76.54;92974.19;5032046;28;20529;-82
2021/08/25 02:21:13;;;;;;;17.83;15.77;;;;;;;18.93;76.15;92995.56;5031846;28;20049;-82
2021/08/25 02:23:41;;;;;;;18.27;15.02;;;;;;;18.80;76.76;92991.69;5031753;28;20049;-82
2021/08/25 02:26:15;;;;;;;24.70;15.73;;;;;;;18.56;78.37;92961.06;5032105;28;20056;-82
2021/08/25 02:28:43;;;;;;;19.35;16.13;;;;;;;18.81;79.43;93007.03;5014542;28;20046;-82
2021/08/25 02:31:10;;;;;;;22.90;16.27;;;;;;;17.88;86.42;92963.75;5032191;28;20071;-83
2021/08/25 02:33:36;;;;;;;21.30;16.75;;;;;;;17.59;91.35;93015.47;5031978;28;20057;-85
2021/08/25 02:36:03;;;;;;;22.10;18.33;;;;;;;17.28;92.98;92992.03;5031747;28;20072;-83
2021/08/25 02:38:32;;;;;;;23.50;17.77;;;;;;;17.69;90.24;93025.06;5031599;28;20486;-82
2021/08/25 02:40:58;;;;;;;22.73;17.42;;;;;;;17.81;89.67;93037.84;5031738;28;20061;-82
2021/08/25 02:43:25;;;;;;;22.98;17.98;;;;;;;17.89;88.29;93039.91;5031492;28;20048;-82
2021/08/25 02:45:52;;;;;;;20.65;17.38;;;;;;;17.87;90.89;93042.00;5031710;28;20049;-82
2021/08/25 02:48:19;;;;;;;23.85;18.60;;;;;;;17.72;93.50;93038.31;5031226;28;20574;-82
2021/08/25 02:50:46;;;;;;;27.73;19.55;;;;;;;17.83;91.98;93054.69;5031337;28;20491;-83
2021/08/25 02:53:13;;;;;;;25.80;18.92;;;;;;;17.84;88.65;93045.88;5031377;28;20052;-82
2021/08/25 02:55:42;;;;;;;23.05;18.77;;;;;;;17.85;91.52;93073.41;5031409;28;20046;-82
2021/08/25 02:58:08;;;;;;;23.63;19.20;;;;;;;17.84;91.72;93071.88;5031267;28;20046;-81
2021/08/25 03:00:35;;;;;;;31.02;20.00;;;;;;;17.94;91.47;93076.28;5031154;28;20561;-80
2021/08/25 03:03:02;;;;;;;24.70;20.20;;;;;;;17.87;90.80;93068.72;5030962;28;20053;-81
2021/08/25 03:05:29;;;;;;;33.85;20.73;;;;;;;17.98;91.25;93074.72;5031182;28;20498;-81
2021/08/25 03:07:56;;;;;;;26.20;21.75;;;;;;;18.01;93.22;93074.19;5031363;28;20065;-81
2021/08/25 03:10:23;;;;;;;25.70;22.65;;;;;;;18.05;93.58;93076.28;5030944;28;20099;-81
2021/08/25 03:12:51;;;;;;;25.38;21.95;;;;;;;18.09;93.56;93077.38;5031237;28;20054;-81
2021/08/25 03:15:18;;;;;;;30.65;21.52;;;;;;;18.10;92.64;93077.09;5031293;28;20107;-82
2021/08/25 03:17:45;;;;;;;27.88;21.60;;;;;;;18.18;90.34;93078.41;5027485;28;20052;-82
2021/08/25 03:20:14;;;;;;;27.65;23.45;;;;;;;18.31;91.51;93069.31;5029395;28;20069;-80
2021/08/25 03:22:41;;;;;;;30.00;22.30;;;;;;;18.34;89.21;93062.78;5030471;28;20052;-82
2021/08/25 03:25:10;;;;;;;31.05;23.10;;;;;;;18.26;89.06;93038.09;5030797;28;20409;-82
2021/08/25 03:27:38;;;;;;;28.10;19.98;;;;;;;18.49;86.23;93056.78;5030158;28;20049;-81
2021/08/25 03:30:07;;;;;;;31.08;20.15;;;;;;;18.54;86.34;93047.19;5030909;28;20049;-80
2021/08/25 03:32:34;;;;;;;32.58;19.55;;;;;;;18.57;85.32;93048.47;5030450;28;20049;-80
2021/08/25 03:35:01;;;;;;;30.95;19.27;;;;;;;18.60;84.92;93045.31;5030669;28;20132;-80
2021/08/25 03:37:28;;;;;;;25.23;19.42;;;;;;;18.59;84.64;93037.78;5030358;28;20049;-80
2021/08/25 03:39:55;;;;;;;29.35;19.50;;;;;;;18.58;84.43;93031.81;5029782;28;20049;-80
2021/08/25 03:42:21;;;;;;;24.17;18.13;;;;;;;18.55;85.33;93034.94;5030500;28;20076;-80
2021/08/25 03:44:48;;;;;;;21.98;19.00;;;;;;;18.50;84.27;93032.34;5030647;28;20049;-80
2021/08/25 03:47:16;;;;;;;24.67;19.63;;;;;;;18.43;86.62;93024.81;5030238;28;20053;-80
2021/08/25 03:49:43;;;;;;;23.52;20.23;;;;;;;18.37;86.01;93037.03;5030100;28;20064;-80
2021/08/25 03:52:10;;;;;;;25.70;20.67;;;;;;;18.30;85.77;93028.75;5030461;28;20099;-80
2021/08/25 03:54:37;;;;;;;30.98;21.52;;;;;;;18.23;87.54;93031.59;5030427;28;20060;-80
2021/08/25 03:57:04;;;;;;;28.55;21.63;;;;;;;18.21;85.65;93031.09;5030101;28;20041;-80
2021/08/25 03:59:31;;;;;;;29.67;21.30;;;;;;;18.12;85.07;93014.47;5029977;28;20054;-80
2021/08/25 04:01:58;;;;;;;25.13;20.08;;;;;;;18.16;85.10;93018.88;5030196;28;20084;-80
2021/08/25 04:04:26;;;;;;;23.52;19.58;;;;;;;18.16;86.19;93016.25;5029929;28;20045;-80
2021/08/25 04:06:53;;;;;;;29.30;21.17;;;;;;;18.14;86.04;93020.16;5029779;28;20060;-80
2021/08/25 04:09:19;;;;;;;29.33;20.10;;;;;;;18.11;86.21;93026.69;5029745;28;20533;-81
2021/08/25 04:11:46;;;;;;;28.95;21.38;;;;;;;18.07;86.42;93040.44;5030113;28;20510;-82
2021/08/25 04:14:13;;;;;;;26.55;21.05;;;;;;;17.96;87.04;93031.84;5030117;28;20046;-81
2021/08/25 04:16:40;;;;;;;49.00;24.77;;;;;;;17.98;86.43;93034.97;5029607;28;20049;-81
2021/08/25 04:19:07;;;;;;;32.70;21.75;;;;;;;18.00;85.91;93028.47;5029709;28;20053;-81
2021/08/25 04:21:35;;;;;;;25.95;20.58;;;;;;;17.92;85.98;93029.00;5030121;28;20045;-81
2021/08/25 04:24:02;;;;;;;35.47;20.50;;;;;;;18.00;86.00;93025.06;5029545;28;20494;-81
2021/08/25 04:26:28;;;;;;;26.67;19.92;;;;;;;18.00;86.34;93025.88;5029631;28;20064;-80
2021/08/25 04:28:55;;;;;;;25.27;20.10;;;;;;;17.82;85.55;93010.81;5029815;28;20046;-80
2021/08/25 04:31:22;;;;;;;30.48;20.58;;;;;;;17.98;85.51;93020.16;5029628;28;20052;-80
2021/08/25 04:33:49;;;;;;;28.63;20.15;;;;;;;18.02;85.67;93021.19;5029719;28;20045;-80
2021/08/25 04:36:16;;;;;;;26.88;20.33;;;;;;;18.00;85.98;93012.88;5029688;28;20057;-82
2021/08/25 04:38:44;;;;;;;25.38;20.48;;;;;;;18.06;85.52;93024.09;5029199;28;20560;-81
2021/08/25 04:41:11;;;;;;;26.45;19.48;;;;;;;18.07;84.91;93017.84;5029605;28;20053;-81
2021/08/25 04:43:37;;;;;;;30.23;18.95;;;;;;;18.08;85.42;93016.00;5029343;28;20053;-81
2021/08/25 04:46:05;;;;;;;27.50;20.33;;;;;;;18.03;85.30;92999.38;5029561;28;20148;-81
2021/08/25 04:48:31;;;;;;;30.65;20.45;;;;;;;18.12;84.87;93011.84;5029366;28;20056;-80
2021/08/25 04:50:58;;;;;;;27.70;20.15;;;;;;;18.20;84.06;93016.53;5028812;28;20549;-80
2021/08/25 04:53:25;;;;;;;28.25;21.02;;;;;;;18.14;84.10;92999.38;5029036;28;20046;-81
2021/08/25 04:55:53;;;;;;;33.67;21.33;;;;;;;18.29;84.92;93011.59;5029371;28;20049;-81
2021/08/25 04:58:20;;;;;;;33.50;20.70;;;;;;;18.34;84.60;93013.41;5029310;28;20053;-80
2021/08/25 05:00:48;;;;;;;29.73;20.25;;;;;;;18.33;84.58;93014.44;5029170;28;20045;-81
2021/08/25 05:03:15;;;;;;;34.30;20.38;;;;;;;18.40;84.23;93005.34;5028932;28;20048;-81
2021/08/25 05:05:42;;;;;;;32.22;21.15;;;;;;;18.41;84.21;93014.69;5028915;28;20053;-81
2021/08/25 05:08:09;;;;;;;31.73;20.17;;;;;;;17.72;84.22;92899.84;5028971;28;20053;-82
2021/08/25 05:10:35;;;;;;;28.63;20.63;;;;;;;18.54;84.50;93021.16;5028947;28;20065;-82
2021/08/25 05:13:05;;;;;;;28.17;19.98;;;;;;;18.58;84.29;93020.63;5028871;28;20057;-83
2021/08/25 05:15:32;;;;;;;27.52;20.42;;;;;;;18.66;83.89;93025.31;5029276;28;20417;-83
2021/08/25 05:17:59;;;;;;;33.22;20.02;;;;;;;18.73;83.26;93027.59;5028870;28;20839;-84
2021/08/25 05:20:25;;;;;;;29.42;19.88;;;;;;;18.81;82.94;93029.66;5029215;28;20053;-83
2021/08/25 05:22:52;;;;;;;26.17;19.63;;;;;;;18.73;82.86;93006.78;5028877;28;20068;-82
2021/08/25 05:25:19;;;;;;;29.05;19.58;;;;;;;18.89;82.92;93026.50;5028624;28;20045;-83
2021/08/25 05:27:46;;;;;;;32.60;21.10;;;;;;;18.88;85.54;93024.97;5029097;28;20426;-83
2021/08/25 05:30:15;;;;;;;28.25;20.23;;;;;;;18.79;83.85;93013.56;5029352;28;20056;-83
2021/08/25 05:32:41;;;;;;;28.05;21.85;;;;;;;18.94;86.70;93033.53;5028703;28;20053;-83
2021/08/25 05:35:10;;;;;;;29.10;21.88;;;;;;;18.87;87.00;93027.81;5029042;28;20083;-82
2021/08/25 05:37:37;;;;;;;31.33;22.23;;;;;;;18.89;85.69;93018.69;5028659;28;20136;-82
2021/08/25 05:40:05;;;;;;;28.70;22.58;;;;;;;18.72;85.45;92985.22;5028662;28;20045;-82
2021/08/25 05:42:31;;;;;;;27.38;21.80;;;;;;;19.11;85.23;93019.44;5029072;28;20188;-84
2021/08/25 05:44:58;;;;;;;27.92;21.30;;;;;;;19.02;87.10;93034.81;5028917;28;20160;-84
2021/08/25 05:47:27;;;;;;;28.05;21.10;;;;;;;18.85;83.98;92981.25;5028958;28;20057;-82
2021/08/25 05:49:53;;;;;;;27.33;21.85;;;;;;;19.08;85.75;92985.06;5025892;28;20062;-85
2021/08/25 05:52:20;;;;;;;30.48;21.92;;;;;;;18.80;86.86;92970.88;5027553;28;20041;-85
2021/08/25 05:54:47;;;;;;;25.95;21.13;;;;;;;19.21;83.33;92983.72;5027997;28;20494;-85
2021/08/25 05:57:14;;;;;;;24.85;20.27;;;;;;;19.16;83.12;92949.88;5028793;28;20387;-84
2021/08/25 05:59:41;;;;;;;27.35;19.17;;;;;;;19.80;82.38;93014.34;5028496;28;20041;-85
2021/08/25 06:02:08;;;;;;;24.58;19.10;;;;;;;19.56;83.78;93014.25;5028737;28;20051;-85
2021/08/25 06:04:36;;;;;;;25.15;19.67;;;;;;;19.43;84.97;93007.81;5031008;28;20061;-86
2021/08/25 06:07:03;;;;;;;25.70;20.92;;;;;;;19.55;85.45;93013.47;5032214;28;20045;-86
2021/08/25 06:09:30;;;;;;;30.88;19.67;;;;;;;19.72;82.97;92981.81;5032221;28;20486;-85
2021/08/25 06:11:57;;;;;;;25.98;19.58;;;;;;;20.19;81.13;93006.78;5032176;28;20423;-84
2021/08/25 06:14:24;;;;;;;29.58;19.83;;;;;;;20.22;79.33;92959.28;5031963;28;20046;-85
2021/08/25 06:16:51;;;;;;;22.75;18.23;;;;;;;20.29;78.12;92946.69;5032243;28;20144;-87
2021/08/25 06:19:19;;;;;;;24.98;18.73;;;;;;;20.78;78.40;92999.66;5032094;28;20062;-84
2021/08/25 06:21:48;;;;;;;23.85;18.38;;;;;;;20.56;76.76;92940.16;5032058;28;20056;-88
2021/08/25 06:24:15;;;;;;;23.48;17.83;;;;;;;21.33;75.40;93005.53;5032209;28;20156;-85
2021/08/25 06:26:43;;;;;;;21.95;17.83;;;;;;;20.94;76.32;92992.47;5031772;28;20057;-87
2021/08/25 06:29:10;;;;;;;24.50;17.67;;;;;;;21.43;74.17;93000.19;5031767;28;20049;-86
2021/08/25 06:31:37;;;;;;;23.02;17.95;;;;;;;21.85;73.25;93002.25;5032020;28;20053;-87
2021/08/25 06:34:04;;;;;;;26.20;19.00;;;;;;;21.99;70.46;92955.97;5031322;28;20053;-86
2021/08/25 06:36:31;;;;;;;25.63;17.98;;;;;;;22.45;68.26;92977.16;5031485;28;20494;-86
2021/08/25 06:38:59;;;;;;;23.13;16.52;;;;;;;22.29;67.47;92912.06;5032002;28;20057;-87
2021/08/25 06:41:26;;;;;;;22.40;16.75;;;;;;;22.79;66.69;92962.97;5031495;28;20132;-86
2021/08/25 06:43:53;;;;;;;20.48;16.40;;;;;;;22.24;67.19;92925.22;5031630;28;20050;-86
2021/08/25 06:46:20;;;;;;;20.60;16.55;;;;;;;23.10;65.67;92995.63;5031584;28;20131;-86
2021/08/25 06:48:47;;;;;;;21.98;16.30;;;;;;;22.47;66.87;92990.75;5031414;28;20045;-87
2021/08/25 06:51:14;;;;;;;23.08;15.85;;;;;;;22.25;66.45;92950.31;5031506;28;20411;-87
2021/08/25 06:53:41;;;;;;;25.73;17.10;;;;;;;22.42;66.74;93001.31;5031424;28;20180;-87
2021/08/25 06:56:09;;;;;;;20.77;15.73;;;;;;;22.78;66.41;92990.19;5031412;28;20115;-86
2021/08/25 06:58:37;;;;;;;21.95;15.88;;;;;;;22.96;64.63;93003.50;5031328;28;20573;-88
2021/08/25 07:01:04;;;;;;;25.95;16.63;;;;;;;22.64;64.81;92974.50;5030568;28;20457;-88
2021/08/25 07:03:31;;;;;;;26.27;17.70;;;;;;;23.15;62.88;93008.59;5031181;28;20502;-85
2021/08/25 07:05:59;;;;;;;24.20;17.35;;;;;;;23.53;61.62;92998.94;5030510;28;20101;-85
2021/08/25 07:08:25;;;;;;;23.15;15.60;;;;;;;23.71;60.88;93000.66;5030461;28;20057;-86
2021/08/25 07:10:52;;;;;;;20.95;15.80;;;;;;;23.37;62.65;92999.28;5032001;28;20053;-85
2021/08/25 07:13:21;;;;;;;23.85;16.85;;;;;;;23.52;61.99;92968.56;5031110;28;20156;-85
2021/08/25 07:15:47;;;;;;;21.00;15.13;;;;;;;23.55;60.83;92944.41;5030799;28;20053;-86
2021/08/25 07:18:20;;;;;;;19.80;14.85;;;;;;;24.06;59.73;92984.34;5031110;28;20056;-86
2021/08/25 07:20:50;;;;;;;23.90;15.05;;;;;;;24.17;59.18;92974.41;5031501;28;20042;-86
2021/08/25 07:23:16;;;;;;;21.63;15.75;;;;;;;24.02;58.52;92936.16;5034630;28;20042;-86
2021/08/25 07:25:43;;;;;;;22.83;15.50;;;;;;;24.35;58.20;92958.75;5033161;28;20096;-86
2021/08/25 07:28:11;;;;;;;26.42;16.50;;;;;;;23.57;59.37;92942.25;5030949;28;20053;-85
2021/08/25 07:30:40;;;;;;;26.50;15.32;;;;;;;23.33;60.72;92988.63;5030925;28;20490;-86
2021/08/25 07:33:11;;;;;;;24.30;15.77;;;;;;;23.14;61.25;92946.78;5030480;28;20122;-85
2021/08/25 07:35:38;;;;;;;24.55;15.95;;;;;;;24.07;60.43;92998.25;5031140;28;20053;-86
2021/08/25 07:38:05;;;;;;;27.15;15.10;;;;;;;24.38;58.50;92971.25;5030275;28;20064;-84
2021/08/25 07:40:32;;;;;;;29.08;15.73;;;;;;;23.48;58.79;92929.81;5029804;28;20494;-85
2021/08/25 07:42:59;;;;;;;28.10;16.48;;;;;;;23.49;60.50;92981.22;5029862;28;20172;-86
2021/08/25 07:45:27;;;;;;;30.95;16.08;;;;;;;23.39;59.82;92926.38;5030285;28;20095;-88
2021/08/25 07:47:55;;;;;;;32.92;16.48;;;;;;;23.53;59.73;92930.78;5029562;28;20422;-85
2021/08/25 07:50:22;;;;;;;27.25;16.20;;;;;;;24.10;59.57;92979.31;5029824;28;20061;-89
2021/08/25 07:52:52;;;;;;;28.23;15.98;;;;;;;23.96;58.71;92911.16;5030306;28;20564;-86
2021/08/25 07:55:19;;;;;;;28.13;17.02;;;;;;;24.54;57.13;92917.28;5030107;28;20038;-85
2021/08/25 07:57:46;;;;;;;27.70;14.98;;;;;;;25.00;56.66;92976.75;5029964;28;20049;-85
2021/08/25 08:00:14;;;;;;;21.45;13.38;;;;;;;24.48;56.02;92912.47;5030096;28;20049;-88
2021/08/25 08:02:41;;;;;;;36.42;15.93;;;;;;;24.55;56.39;92921.47;5029994;28;20060;-87
2021/08/25 08:05:16;;;;;;;29.27;14.73;;;;;;;25.31;55.57;92970.59;5030214;28;20136;-89
2021/08/25 08:07:43;;;;;;;;;;;;;;;25.34;54.65;92975.25;5029819;28;20057;-85
2021/08/25 08:10:11;;;;;;;23.05;13.63;;;;;;;24.36;55.00;92878.94;5030191;28;19921;-86
2021/08/25 08:12:41;;;;;;;22.60;14.00;;;;;;;24.66;56.02;92965.81;5030153;28;20159;-89
2021/08/25 08:15:12;;;;;;;23.10;14.45;;;;;;;24.32;57.57;92964.59;5029726;28;20056;-88
2021/08/25 08:17:43;;;;;;;22.75;13.73;;;;;;;24.36;56.71;92910.44;5029926;28;20049;-85
2021/08/25 08:20:15;;;;;;;23.98;13.95;;;;;;;24.17;56.05;92898.31;5029875;28;20050;-89
2021/08/25 08:22:42;;;;;;;23.52;13.88;;;;;;;24.87;55.80;92918.00;5029442;28;20132;-88
2021/08/25 08:25:10;;;;;;;21.38;12.65;;;;;;;25.33;54.16;92908.00;5029407;28;20495;-88
2021/08/25 08:27:37;;;;;;;29.08;13.20;;;;;;;25.94;52.19;92916.91;5029372;28;20049;-87
2021/08/25 08:30:06;;;;;;;18.92;12.02;;;;;;;25.95;50.68;92916.59;5029048;28;20055;-88
2021/08/25 08:32:34;;;;;;;17.33;12.18;;;;;;;26.67;50.37;92973.97;5029443;28;20491;-90
2021/08/25 08:35:01;;;;;;;27.60;13.20;;;;;;;26.85;49.40;92923.06;5029533;28;20053;-87
2021/08/25 08:37:30;;;;;;;22.30;11.45;;;;;;;27.14;49.29;92900.41;5029515;28;20054;-88
2021/08/25 08:39:57;;;;;;;19.38;11.80;;;;;;;28.01;47.35;92970.16;5028977;28;20056;-88
2021/08/25 08:42:28;;;;;;;21.83;11.88;;;;;;;28.17;46.92;92934.44;5029264;28;20556;-89
2021/08/25 08:44:57;;;;;;;17.23;11.30;;;;;;;28.57;45.55;92962.13;5029086;28;20053;-86
2021/08/25 08:47:25;;;;;;;19.00;11.02;;;;;;;28.14;44.45;92889.09;5029339;28;20135;-89
2021/08/25 08:49:54;;;;;;;20.70;10.68;;;;;;;28.60;44.62;92945.63;5029349;28;20070;-88
2021/08/25 08:52:22;;;;;;;13.90;10.38;;;;;;;28.88;44.04;92921.94;5029507;28;20045;-87
2021/08/25 08:54:53;;;;;;;14.52;11.30;;;;;;;29.38;43.15;92952.84;5029380;28;20053;-86
2021/08/25 08:57:21;;;;;;;17.98;10.13;;;;;;;28.04;42.98;92852.56;5028935;28;20049;-87
2021/08/25 08:59:48;;;;;;;14.65;9.63;;;;;;;28.73;42.78;92933.19;5029139;28;20056;-87
2021/08/25 09:02:40;;;;;;;17.30;10.57;;;;;;;28.59;43.19;92896.53;5028907;28;20078;-87
2021/08/25 09:05:18;;;;;;;24.67;11.02;;;;;;;29.16;43.17;92949.56;5029108;28;20559;-87
2021/08/25 09:07:53;;;;;;;16.83;10.95;;;;;;;28.78;43.71;92928.44;5029372;28;20406;-84
2021/08/25 09:10:27;;;;;;;16.67;11.38;;;;;;;28.71;44.27;92961.81;5029007;28;20057;-87
2021/08/25 09:12:56;;;;;;;15.82;11.10;;;;;;;28.79;43.96;92960.94;5028855;28;20069;-86
2021/08/25 09:15:25;;;;;;;13.90;10.85;;;;;;;28.70;43.47;92908.19;5028897;28;20045;-88
2021/08/25 09:17:57;;;;;;;18.13;10.48;;;;;;;28.49;43.42;92879.22;5029144;28;20569;-88
2021/08/25 09:20:40;;;;;;;14.40;11.55;;;;;;;29.00;43.24;92962.69;5028608;28;20057;-88
2021/08/25 09:23:17;;;;;;;14.93;10.10;;;;;;;28.28;42.50;92843.16;5024076;28;20049;-86
2021/08/25 09:25:47;;;;;;;18.23;10.90;;;;;;;28.60;42.07;92876.94;5028516;28;20046;-85
2021/08/25 09:28:16;;;;;;;13.02;9.90;;;;;;;29.22;41.88;92940.31;5028417;28;20053;-87
2021/08/25 09:30:59;;;;;;;16.25;9.27;;;;;;;28.96;41.30;92911.59;5028269;28;20057;-87
2021/08/25 09:33:27;;;;;;;17.35;10.40;;;;;;;29.05;41.55;92941.31;5028430;28;20495;-87
2021/08/25 09:36:00;;;;;;;17.75;10.82;;;;;;;28.57;42.84;92968.19;5027870;28;20099;-87
2021/08/25 09:38:29;;;;;;;14.48;11.00;;;;;;;28.23;43.11;92967.50;5031137;28;20042;-88
2021/08/25 09:40:59;;;;;;;12.77;10.07;;;;;;;28.35;43.44;92961.44;5033017;28;20081;-85
2021/08/25 09:43:30;;;;;;;14.70;9.15;;;;;;;27.90;43.37;92957.69;5032901;28;20045;-88
2021/08/25 09:46:09;;;;;;;13.68;10.55;;;;;;;27.33;44.91;92936.88;5032829;28;20133;-88
2021/08/25 09:48:37;;;;;;;18.83;11.93;;;;;;;27.65;44.46;92952.31;5030091;28;20060;-87
2021/08/25 09:51:05;;;;;;;14.25;9.77;;;;;;;27.44;46.58;92947.81;5031259;28;20061;-86
2021/08/25 09:53:32;;;;;;;13.50;9.68;;;;;;;25.68;48.08;92878.28;5032402;28;20046;-85
2021/08/25 09:56:00;;;;;;;12.60;8.95;;;;;;;26.46;47.90;92939.69;5029127;28;20096;-86
2021/08/25 09:58:39;;;;;;;12.68;9.95;;;;;;;26.20;48.48;92947.66;5032192;28;20057;-86
2021/08/25 10:01:06;;;;;;;12.38;9.85;;;;;;;26.21;48.24;92960.50;5032498;28;20045;-86
2021/08/25 10:03:33;;;;;;;12.88;9.45;;;;;;;25.90;48.46;92950.97;5032010;28;20050;-84
2021/08/25 10:06:05;;;;;;;10.95;9.18;;;;;;;25.19;48.42;92863.47;5032797;28;20065;-87
2021/08/25 10:08:32;;;;;;;16.40;10.48;;;;;;;25.86;49.42;92952.66;5032694;28;20129;-87
2021/08/25 10:11:00;;;;;;;11.15;9.63;;;;;;;25.75;48.13;92912.78;5032599;28;20064;-85
2021/08/25 10:13:28;;;;;;;15.63;9.63;;;;;;;26.31;46.91;92925.19;5032715;28;20066;-85
2021/08/25 10:15:55;;;;;;;10.82;9.13;;;;;;;26.24;45.80;92917.00;5032491;28;20054;-87
2021/08/25 10:18:25;;;;;;;11.25;9.27;;;;;;;26.71;45.46;92934.63;5031929;28;20064;-85
2021/08/25 10:20:53;;;;;;;11.45;9.15;;;;;;;27.23;44.83;92937.25;5031846;28;20132;-87
2021/08/25 10:23:22;;;;;;;11.30;9.93;;;;;;;27.04;44.29;92898.94;5032276;28;20145;-85
2021/08/25 10:26:10;;;;;;;10.85;9.07;;;;;;;27.48;43.20;92909.13;5031766;28;20049;-86
2021/08/25 10:29:06;;;;;;;16.02;11.00;;;;;;;27.04;48.89;92918.16;5031715;28;20045;-85
2021/08/25 10:32:09;;;;;;;21.20;12.13;;;;;;;27.66;49.29;92912.44;5025239;28;20144;-87
2021/08/25 10:34:40;;;;;;;14.30;11.43;;;;;;;27.45;48.42;92886.06;5018337;28;20056;-86
2021/08/25 10:37:27;;;;;;;13.70;11.23;;;;;;;27.82;46.53;92912.56;5028207;28;20041;-87
2021/08/25 10:40:00;;;;;;;14.35;10.63;;;;;;;27.44;47.93;92901.09;5029247;28;20059;-86
2021/08/25 10:42:49;;;;;;;13.93;10.75;;;;;;;28.31;46.24;92892.66;5030861;28;20041;-87
2021/08/25 10:45:18;;;;;;;13.65;10.27;;;;;;;28.63;43.65;92855.91;5031723;28;20053;-86
2021/08/25 10:48:00;;;;;;;14.80;10.50;;;;;;;29.18;44.23;92863.50;5031631;28;20050;-84
2021/08/25 10:50:51;;;;;;;14.23;9.93;;;;;;;29.45;43.58;92873.66;5030575;28;20045;-84
2021/08/25 10:53:38;;;;;;;14.95;10.73;;;;;;;28.39;45.63;92868.03;5031163;28;20051;-84
2021/08/25 10:56:08;;;;;;;16.83;11.70;;;;;;;28.28;46.31;92869.56;5031465;28;20049;-85
2021/08/25 10:58:47;;;;;;;14.40;10.40;;;;;;;28.49;44.88;92869.44;5031229;28;20053;-85
2021/08/25 11:01:25;;;;;;;12.77;10.63;;;;;;;27.85;46.11;92859.16;5031040;28;20143;-83
2021/08/25 11:03:53;;;;;;;15.52;10.25;;;;;;;27.81;45.78;92799.44;5031282;28;20414;-85
2021/08/25 11:06:32;;;;;;;15.35;10.75;;;;;;;28.41;44.15;92849.19;5030699;28;20092;-85
2021/08/25 11:09:12;;;;;;;14.77;10.10;;;;;;;28.89;44.48;92849.50;5031194;28;20055;-84
2021/08/25 11:11:39;;;;;;;11.90;9.77;;;;;;;28.64;42.65;92872.50;5031254;28;20072;-84
2021/08/25 11:14:08;;;;;;;13.55;11.05;;;;;;;29.07;43.56;92873.03;5031231;28;20053;-84
2021/08/25 11:16:35;;;;;;;12.65;9.82;;;;;;;28.89;42.44;92859.28;5030811;28;20053;-86
2021/08/25 11:19:01;;;;;;;11.90;9.75;;;;;;;28.24;41.96;92835.09;5030635;28;20506;-84
2021/08/25 11:21:28;;;;;;;15.60;11.32;;;;;;;28.30;44.71;92880.56;5030285;28;20046;-84
2021/08/25 11:23:56;;;;;;;15.73;11.95;;;;;;;27.08;47.60;92882.16;5030494;28;20057;-85
2021/08/25 11:26:24;;;;;;;17.02;12.93;;;;;;;26.22;50.38;92827.00;5018553;28;20060;-85